CheckWX is a tool to help pilots better visualize weather data.  It is not intended as a substitute for an official pre-flight weather briefing.

04:40:27 UTC

CYYY TAF
Mont Joli Airport
Mont-Joli, Canada
TAF CYYY 241930Z 2420/2508 36005KT P6SM BKN120 FM250000 VRB03KT P6SM SCT120 BKN240 RMK NXT FCST BY 250200Z

May-24@
20:00 UTC

May-24 @ 20:00 UTC

May-25@
00:00 UTC

May-25 @ 00:00 UTC

TAF CYYY 241930Z 2420/2508 36005KT P6SM BKN120

Expired

Wind
  • 360° at 5 KTS
Cloud Levels
  • Broken at 12,000' AGL

May-25@
00:00 UTC

May-25 @ 00:00 UTC

May-25@
08:00 UTC

May-25 @ 08:00 UTC

FM250000 VRB03KT P6SM SCT120 BKN240 RMK NXT FCST BY 250200Z

From

From Standard forecast or significant change

Wind
  • Variable at 3 KTS
Cloud Levels
  • Scattered at 12,000' AGL
  • Broken at 24,000' AGL